createdAt,value
2022-09-02T00:01:59.849Z,1.50
2022-09-02T00:04:27.629Z,1.25
2022-09-02T00:06:54.987Z,1.55
2022-09-02T00:09:24.009Z,1.10
2022-09-02T00:11:52.398Z,1.10
2022-09-02T00:14:24.829Z,0.93
2022-09-02T00:16:51.807Z,0.95
2022-09-02T00:19:22.222Z,1.00
2022-09-02T00:21:49.889Z,1.00
2022-09-02T00:24:17.158Z,1.60
2022-09-02T00:26:44.581Z,1.40
2022-09-02T00:29:12.112Z,1.40
2022-09-02T00:31:39.115Z,1.67
2022-09-02T00:34:05.976Z,1.55
2022-09-02T00:36:33.969Z,1.73
2022-09-02T00:39:00.733Z,1.55
2022-09-02T00:41:29.153Z,1.60
2022-09-02T00:43:55.831Z,1.30
2022-09-02T00:46:25.036Z,1.33
2022-09-02T00:49:17.263Z,1.30
2022-09-02T00:51:53.122Z,1.40
2022-09-02T00:54:22.553Z,1.38
2022-09-02T00:56:55.756Z,1.95
2022-09-02T00:59:51.046Z,1.70
2022-09-02T01:02:18.803Z,1.38
2022-09-02T01:04:45.633Z,0.98
2022-09-02T01:07:12.620Z,2.38
2022-09-02T01:09:40.220Z,1.45
2022-09-02T01:12:07.881Z,1.20
2022-09-02T01:14:35.242Z,1.23
2022-09-02T01:17:03.021Z,1.30
2022-09-02T01:19:37.475Z,1.52
2022-09-02T01:22:15.637Z,1.60
2022-09-02T01:24:42.441Z,1.50
2022-09-02T01:27:09.324Z,1.15
2022-09-02T01:29:36.496Z,1.37
2022-09-02T01:32:03.609Z,1.25
2022-09-02T01:34:31.759Z,1.10
2022-09-02T01:36:58.544Z,1.25
2022-09-02T01:39:25.536Z,1.05
2022-09-02T01:41:52.516Z,0.95
2022-09-02T01:44:19.354Z,1.05
2022-09-02T01:46:49.221Z,1.35
2022-09-02T01:49:16.008Z,1.25
2022-09-02T01:51:43.429Z,1.60
2022-09-02T01:54:11.050Z,1.13
2022-09-02T01:56:38.393Z,1.10
2022-09-02T01:59:05.553Z,1.33
2022-09-02T02:01:32.428Z,1.60
2022-09-02T02:03:59.860Z,1.73
2022-09-02T02:06:27.020Z,1.70
2022-09-02T02:08:54.847Z,2.03
2022-09-02T02:11:25.239Z,2.03
2022-09-02T02:13:57.142Z,1.30
2022-09-02T02:16:24.322Z,1.67
2022-09-02T02:18:51.253Z,1.85
2022-09-02T02:21:19.110Z,1.40
2022-09-02T02:23:47.745Z,2.00
2022-09-02T02:26:14.444Z,1.80
2022-09-02T02:28:41.410Z,1.35
2022-09-02T02:31:09.432Z,1.45
2022-09-02T02:33:36.801Z,1.70
2022-09-02T02:38:37.422Z,1.30
2022-09-02T02:41:04.634Z,2.10
2022-09-02T02:43:31.334Z,1.92
2022-09-02T02:45:58.144Z,1.85
2022-09-02T02:48:25.398Z,2.05
2022-09-02T02:50:52.458Z,2.90
2022-09-02T02:53:19.330Z,2.03
2022-09-02T02:55:49.813Z,1.90
2022-09-02T02:58:18.525Z,1.52
2022-09-02T03:00:48.744Z,2.45
2022-09-02T03:03:17.113Z,2.10
2022-09-02T03:05:44.117Z,1.65
2022-09-02T03:08:11.373Z,2.22
2022-09-02T03:10:40.499Z,2.15
2022-09-02T03:13:09.445Z,2.28
2022-09-02T03:15:39.220Z,2.80
2022-09-02T03:18:06.296Z,2.17
2022-09-02T03:20:33.804Z,2.08
2022-09-02T03:23:03.916Z,2.83
2022-09-02T03:25:36.123Z,2.00
2022-09-02T03:28:11.515Z,2.42
2022-09-02T03:30:39.740Z,2.13
2022-09-02T03:33:07.232Z,1.90
2022-09-02T03:35:39.602Z,2.95
2022-09-02T03:38:07.695Z,2.15
2022-09-02T03:43:03.119Z,2.65
2022-09-02T03:45:31.265Z,2.28
2022-09-02T03:48:03.435Z,2.08
2022-09-02T03:50:37.386Z,2.45
2022-09-02T03:53:05.052Z,1.77
2022-09-02T03:55:32.100Z,2.47
2022-09-02T03:57:59.050Z,2.65
2022-09-02T04:00:27.292Z,2.42
2022-09-02T04:02:55.022Z,2.88
2022-09-02T04:05:22.948Z,2.65
2022-09-02T04:07:53.039Z,3.65
2022-09-02T04:10:21.402Z,2.00
2022-09-02T04:12:51.490Z,2.33
2022-09-02T04:15:19.964Z,2.35
2022-09-02T04:17:49.299Z,2.45
2022-09-02T04:20:19.253Z,2.35
2022-09-02T04:22:46.074Z,2.47
2022-09-02T04:25:13.735Z,2.22
2022-09-02T04:27:40.728Z,1.77
2022-09-02T04:30:09.337Z,2.63
2022-09-02T04:32:40.892Z,2.50
2022-09-02T04:35:09.415Z,2.67
2022-09-02T04:37:38.515Z,2.53
2022-09-02T04:40:06.140Z,2.78
2022-09-02T04:42:33.879Z,3.17
2022-09-02T04:45:00.628Z,2.55
2022-09-02T04:47:27.861Z,2.78
2022-09-02T04:49:55.647Z,2.30
2022-09-02T04:52:23.040Z,2.47
2022-09-02T04:54:50.503Z,2.20
2022-09-02T04:57:17.878Z,2.47
2022-09-02T04:59:45.180Z,2.67
2022-09-02T05:02:12.337Z,2.33
2022-09-02T05:07:13.796Z,2.15
2022-09-02T05:09:44.558Z,2.10
2022-09-02T05:12:11.335Z,2.53
2022-09-02T05:14:44.807Z,2.28
2022-09-02T05:17:11.623Z,2.80
2022-09-02T05:19:42.154Z,2.17
2022-09-02T05:22:09.294Z,2.55
2022-09-02T05:24:39.794Z,2.20
2022-09-02T05:27:10.359Z,2.40
2022-09-02T05:29:37.401Z,2.40
2022-09-02T05:32:05.127Z,2.10
2022-09-02T05:34:33.235Z,2.20
2022-09-02T05:37:02.831Z,2.40
2022-09-02T05:39:31.735Z,1.98
2022-09-02T05:41:59.812Z,2.90
2022-09-02T05:44:26.624Z,2.42
2022-09-02T05:46:54.205Z,2.63
2022-09-02T05:49:21.036Z,3.28
2022-09-02T05:51:58.482Z,2.42
2022-09-02T05:54:35.847Z,2.58
2022-09-02T05:57:13.303Z,2.78
2022-09-02T05:59:45.367Z,2.65
2022-09-02T06:02:20.550Z,3.67
2022-09-02T06:04:49.634Z,2.50
2022-09-02T06:07:19.008Z,2.35
2022-09-02T06:09:48.843Z,2.33
2022-09-02T06:12:17.387Z,2.45
2022-09-02T06:14:44.767Z,2.65
2022-09-02T06:17:12.239Z,2.58
2022-09-02T06:19:45.710Z,1.92
2022-09-02T06:22:13.201Z,2.63
2022-09-02T06:24:42.050Z,2.30
2022-09-02T06:27:13.769Z,2.70
2022-09-02T06:29:45.864Z,2.60
2022-09-02T06:32:15.000Z,2.38
2022-09-02T06:34:42.104Z,3.17
2022-09-02T06:37:09.614Z,2.50
2022-09-02T06:39:40.093Z,2.53
2022-09-02T06:42:07.375Z,2.70
2022-09-02T06:44:44.522Z,2.70
2022-09-02T06:47:11.338Z,2.47
2022-09-02T06:49:38.226Z,2.78
2022-09-02T06:52:05.795Z,2.43
2022-09-02T06:54:36.214Z,2.35
2022-09-02T06:57:11.377Z,3.00
2022-09-02T06:59:38.727Z,2.63
2022-09-02T07:02:06.077Z,2.53
2022-09-02T07:04:34.090Z,2.13
2022-09-02T07:07:03.775Z,2.72
2022-09-02T07:09:34.319Z,2.78
2022-09-02T07:12:09.052Z,2.70
2022-09-02T07:14:42.493Z,2.08
2022-09-02T07:17:13.103Z,1.98
2022-09-02T07:19:39.862Z,2.15
2022-09-02T07:22:07.385Z,2.30
2022-09-02T07:24:39.988Z,2.75
2022-09-02T07:27:07.603Z,2.13
2022-09-02T07:29:35.132Z,2.17
2022-09-02T07:32:02.346Z,2.40
2022-09-02T07:34:29.806Z,2.08
2022-09-02T07:37:01.848Z,2.00
2022-09-02T07:39:30.249Z,2.30
2022-09-02T07:41:57.199Z,2.30
2022-09-02T07:44:24.402Z,1.77
2022-09-02T07:46:53.150Z,2.13
2022-09-02T07:51:51.794Z,1.45
2022-09-02T07:54:23.536Z,2.15
2022-09-02T07:56:52.074Z,1.95
2022-09-02T07:59:19.681Z,1.52
2022-09-02T08:01:47.001Z,1.67
2022-09-02T08:04:14.745Z,1.30
2022-09-02T08:06:41.901Z,1.67
2022-09-02T08:09:10.673Z,1.80
2022-09-02T08:11:43.049Z,1.80
2022-09-02T08:14:12.298Z,1.67
2022-09-02T08:16:39.954Z,1.80
2022-09-02T08:19:08.358Z,1.83
2022-09-02T08:21:35.165Z,1.58
2022-09-02T08:24:02.236Z,1.40
2022-09-02T08:26:30.028Z,1.70
2022-09-02T08:28:57.093Z,1.08
2022-09-02T08:31:24.078Z,1.35
2022-09-02T08:33:50.791Z,1.50
2022-09-02T08:36:17.711Z,1.42
2022-09-02T08:38:44.594Z,1.83
2022-09-02T08:41:22.624Z,1.17
2022-09-02T08:43:52.570Z,1.73
2022-09-02T08:46:22.391Z,1.48
2022-09-02T08:49:15.044Z,1.50
2022-09-02T08:51:51.068Z,1.20
2022-09-02T08:54:51.603Z,0.88
2022-09-02T08:59:45.305Z,1.10
2022-09-02T09:02:26.705Z,1.00
2022-09-02T09:05:20.241Z,1.17
2022-09-02T09:07:46.901Z,1.38
2022-09-02T09:10:36.042Z,1.17
2022-09-02T09:13:21.008Z,1.10
2022-09-02T09:15:47.785Z,1.35
2022-09-02T09:18:19.234Z,1.00
2022-09-02T09:20:46.757Z,1.15
2022-09-02T09:23:36.095Z,1.45
2022-09-02T09:26:16.693Z,1.40
2022-09-02T09:28:46.654Z,1.33
2022-09-02T09:31:17.692Z,1.38
2022-09-02T09:34:04.657Z,1.17
2022-09-02T09:36:40.636Z,0.73
2022-09-02T09:39:21.057Z,1.00
2022-09-02T09:41:49.416Z,1.13
2022-09-02T09:44:34.376Z,0.90
2022-09-02T09:47:02.386Z,1.10
2022-09-02T09:49:32.031Z,0.75
2022-09-02T09:51:59.202Z,0.65
2022-09-02T09:54:27.726Z,0.70
2022-09-02T09:56:55.802Z,0.80
2022-09-02T09:59:43.499Z,1.13
2022-09-02T10:02:27.559Z,1.00
2022-09-02T10:05:10.488Z,0.95
2022-09-02T10:07:40.521Z,1.10
2022-09-02T10:10:19.933Z,0.95
2022-09-02T10:12:49.351Z,0.70
2022-09-02T10:15:25.088Z,0.90
2022-09-02T10:18:05.123Z,0.60
2022-09-02T10:21:15.612Z,1.10
2022-09-02T10:24:21.055Z,0.85
2022-09-02T10:26:50.518Z,0.73
2022-09-02T10:29:35.479Z,0.90
2022-09-02T10:32:18.895Z,0.73
2022-09-02T10:35:25.488Z,1.10
2022-09-02T10:38:07.094Z,0.80
2022-09-02T10:41:18.823Z,0.77
2022-09-02T10:43:45.809Z,0.60
2022-09-02T10:46:18.045Z,0.70
2022-09-02T10:48:55.842Z,0.80
2022-09-02T10:51:59.548Z,0.70
2022-09-02T10:54:41.375Z,1.40
2022-09-02T10:57:26.671Z,0.98
2022-09-02T11:00:14.313Z,0.88
2022-09-02T11:03:13.195Z,0.85
2022-09-02T11:05:53.858Z,1.10
2022-09-02T11:08:41.047Z,0.80
2022-09-02T11:11:19.052Z,0.60
2022-09-02T11:16:33.736Z,0.90
2022-09-02T11:19:07.355Z,0.80
2022-09-02T11:21:52.735Z,0.80
2022-09-02T11:24:31.314Z,0.50
2022-09-02T11:27:03.263Z,0.50
2022-09-02T11:29:37.141Z,0.63
2022-09-02T11:32:21.769Z,0.50
2022-09-02T11:34:55.808Z,0.60
2022-09-02T11:37:33.336Z,0.82
2022-09-02T11:40:33.400Z,0.65
2022-09-02T11:43:15.362Z,0.60
2022-09-02T11:46:06.313Z,1.23
2022-09-02T11:49:17.416Z,0.77
2022-09-02T11:51:58.704Z,0.82
2022-09-02T11:54:33.416Z,0.88
2022-09-02T11:57:04.060Z,0.57
2022-09-02T11:59:50.899Z,0.80
2022-09-02T12:02:36.241Z,0.70
2022-09-02T12:05:30.715Z,0.65
2022-09-02T12:08:00.011Z,0.82
2022-09-02T12:10:41.872Z,0.75
2022-09-02T12:13:11.343Z,0.95
2022-09-02T12:15:40.965Z,1.90
2022-09-02T12:18:14.220Z,1.10
2022-09-02T12:20:40.964Z,0.95
2022-09-02T12:23:10.086Z,0.90
2022-09-02T12:25:49.382Z,0.75
2022-09-02T12:28:24.188Z,0.70
2022-09-02T12:30:55.141Z,1.00
2022-09-02T12:33:35.548Z,0.63
2022-09-02T12:36:04.437Z,0.80
2022-09-02T12:38:38.206Z,0.95
2022-09-02T12:41:05.063Z,1.25
2022-09-02T12:43:45.406Z,0.60
2022-09-02T12:46:40.441Z,0.90
2022-09-02T12:49:27.329Z,1.00
2022-09-02T12:52:22.237Z,0.93
2022-09-02T12:54:50.397Z,1.08
2022-09-02T12:57:18.912Z,0.93
2022-09-02T12:59:47.760Z,0.63
2022-09-02T13:02:14.373Z,0.80
2022-09-02T13:05:18.381Z,0.50
2022-09-02T13:08:20.248Z,0.93
2022-09-02T13:11:05.618Z,1.35
2022-09-02T13:13:58.121Z,0.80
2022-09-02T13:16:39.572Z,0.60
2022-09-02T13:19:27.435Z,0.73
2022-09-02T13:22:03.748Z,0.98
2022-09-02T13:24:33.299Z,0.90
2022-09-02T13:27:20.327Z,0.65
2022-09-02T13:29:59.334Z,0.50
2022-09-02T13:32:29.148Z,0.93
2022-09-02T13:34:59.265Z,0.90
2022-09-02T13:37:37.193Z,0.63
2022-09-02T13:40:27.129Z,1.00
2022-09-02T13:42:59.039Z,0.60
2022-09-02T13:45:27.944Z,0.55
2022-09-02T13:47:57.696Z,0.50
2022-09-02T13:50:30.289Z,0.88
2022-09-02T13:55:53.784Z,0.70
2022-09-02T13:58:29.292Z,0.70
2022-09-02T14:01:17.397Z,0.77
2022-09-02T14:03:49.443Z,0.43
2022-09-02T14:06:18.410Z,1.08
2022-09-02T14:08:45.763Z,0.70
2022-09-02T14:11:17.609Z,0.77
2022-09-02T14:13:48.571Z,0.60
2022-09-02T14:16:29.516Z,0.47
2022-09-02T14:19:07.553Z,0.40
2022-09-02T14:21:35.684Z,0.68
2022-09-02T14:24:03.091Z,1.02
2022-09-02T14:26:38.557Z,0.80
2022-09-02T14:29:06.498Z,0.60
2022-09-02T14:31:33.794Z,0.60
2022-09-02T14:34:01.642Z,0.75
2022-09-02T14:39:18.015Z,0.90
2022-09-02T14:41:50.508Z,0.65
2022-09-02T14:44:21.912Z,0.68
2022-09-02T14:46:56.998Z,0.90
2022-09-02T14:49:29.938Z,0.50
2022-09-02T14:51:59.581Z,0.55
2022-09-02T14:54:39.511Z,0.57
2022-09-02T14:57:26.602Z,0.73
2022-09-02T14:59:54.260Z,0.80
2022-09-02T15:02:26.606Z,0.80
2022-09-02T15:04:57.945Z,0.70
2022-09-02T15:07:25.851Z,0.60
2022-09-02T15:12:34.112Z,0.88
2022-09-02T15:15:01.109Z,1.10
2022-09-02T15:17:28.143Z,0.50
2022-09-02T15:19:54.936Z,0.57
2022-09-02T15:22:24.466Z,0.40
2022-09-02T15:24:51.888Z,0.77
2022-09-02T15:27:18.981Z,0.45
2022-09-02T15:29:49.273Z,0.70
2022-09-02T15:32:16.380Z,0.40
2022-09-02T15:34:43.225Z,0.93
2022-09-02T15:37:13.039Z,0.65
2022-09-02T15:39:40.292Z,0.75
2022-09-02T15:42:07.097Z,0.90
2022-09-02T15:44:33.850Z,0.50
2022-09-02T15:47:00.585Z,0.60
2022-09-02T15:49:27.373Z,0.57
2022-09-02T15:51:55.243Z,0.60
2022-09-02T15:54:24.198Z,0.40
2022-09-02T15:56:55.866Z,0.50
2022-09-02T15:59:23.120Z,0.70
2022-09-02T16:01:52.273Z,0.50
2022-09-02T16:04:19.300Z,0.32
2022-09-02T16:06:48.020Z,0.40
2022-09-02T16:09:17.207Z,0.70
2022-09-02T16:11:46.341Z,0.60
2022-09-02T16:14:13.177Z,0.50
2022-09-02T16:16:39.971Z,0.50
2022-09-02T16:19:06.979Z,0.47
2022-09-02T16:21:34.341Z,0.60
2022-09-02T16:24:01.085Z,0.98
2022-09-02T16:26:29.842Z,0.60
2022-09-02T16:28:59.884Z,0.60
2022-09-02T16:31:29.162Z,0.57
2022-09-02T16:33:58.362Z,0.60
2022-09-02T16:36:26.848Z,0.60
2022-09-02T16:39:00.425Z,0.63
2022-09-02T16:41:30.129Z,0.80
2022-09-02T16:43:59.310Z,0.63
2022-09-02T16:46:27.465Z,0.60
2022-09-02T16:48:54.731Z,0.40
2022-09-02T16:51:22.921Z,0.37
2022-09-02T16:54:03.640Z,0.50
2022-09-02T16:56:31.357Z,0.82
2022-09-02T16:59:03.198Z,0.82
2022-09-02T17:01:32.587Z,0.65
2022-09-02T17:04:00.450Z,0.50
2022-09-02T17:08:55.367Z,0.57
2022-09-02T17:11:28.604Z,0.52
2022-09-02T17:14:03.806Z,0.57
2022-09-02T17:16:37.399Z,0.43
2022-09-02T17:19:05.174Z,0.47
2022-09-02T17:21:32.005Z,0.40
2022-09-02T17:24:05.499Z,0.60
2022-09-02T17:29:06.514Z,0.77
2022-09-02T17:31:33.950Z,0.47
2022-09-02T17:34:02.478Z,0.45
2022-09-02T17:36:31.004Z,0.47
2022-09-02T17:39:00.327Z,0.90
2022-09-02T17:41:27.258Z,0.68
2022-09-02T17:43:53.882Z,0.80
2022-09-02T17:46:21.140Z,0.32
2022-09-02T17:49:12.861Z,0.40
2022-09-02T17:51:34.920Z,0.43
2022-09-02T17:54:01.851Z,0.70
2022-09-02T17:56:39.595Z,0.40
2022-09-02T17:59:27.762Z,0.52
2022-09-02T18:02:09.383Z,0.50
2022-09-02T18:05:03.002Z,0.55
2022-09-02T18:07:57.041Z,0.50
2022-09-02T18:10:23.658Z,0.57
2022-09-02T18:12:50.245Z,0.65
2022-09-02T18:15:18.476Z,0.68
2022-09-02T18:20:41.850Z,0.40
2022-09-02T18:23:54.855Z,0.50
2022-09-02T18:26:52.434Z,0.65
2022-09-02T18:30:08.739Z,0.40
2022-09-02T18:33:02.825Z,0.50
2022-09-02T18:36:07.193Z,0.50
2022-09-02T18:38:46.950Z,0.50
2022-09-02T18:41:28.851Z,0.50
2022-09-02T18:44:20.848Z,0.70
2022-09-02T18:46:57.054Z,0.70
2022-09-02T18:49:25.839Z,0.55
2022-09-02T18:51:58.805Z,0.70
2022-09-02T18:54:33.984Z,0.50
2022-09-02T18:57:08.011Z,0.57
2022-09-02T18:59:47.199Z,0.40
2022-09-02T19:02:28.383Z,0.68
2022-09-02T19:04:58.232Z,0.60
2022-09-02T19:12:51.941Z,0.30
2022-09-02T19:15:19.212Z,0.82
2022-09-02T19:17:45.762Z,0.87
2022-09-02T19:20:12.306Z,1.00
2022-09-02T19:22:46.879Z,0.57
2022-09-02T19:25:19.218Z,0.68
2022-09-02T19:27:48.268Z,1.00
2022-09-02T19:30:17.923Z,0.50
2022-09-02T19:32:50.902Z,0.50
2022-09-02T19:35:20.027Z,0.60
2022-09-02T19:37:51.185Z,0.80
2022-09-02T19:40:22.622Z,0.90
2022-09-02T19:42:49.212Z,0.60
2022-09-02T19:45:16.801Z,0.73
2022-09-02T19:48:05.965Z,0.57
2022-09-02T19:50:30.443Z,0.50
2022-09-02T19:52:57.022Z,0.75
2022-09-02T19:55:23.608Z,0.60
2022-09-02T19:57:50.218Z,0.40
2022-09-02T20:00:17.359Z,0.60
2022-09-02T20:02:43.913Z,0.60
2022-09-02T20:05:12.888Z,0.40
2022-09-02T20:07:39.852Z,0.60
2022-09-02T20:10:07.939Z,0.60
2022-09-02T20:15:02.290Z,0.47
2022-09-02T20:17:28.817Z,0.98
2022-09-02T20:19:55.704Z,0.73
2022-09-02T20:22:22.521Z,0.85
2022-09-02T20:24:49.112Z,0.82
2022-09-02T20:27:35.919Z,1.10
2022-09-02T20:30:15.358Z,0.63
2022-09-02T20:33:14.832Z,0.50
2022-09-02T20:36:05.768Z,0.80
2022-09-02T20:38:43.951Z,0.40
2022-09-02T20:41:27.178Z,0.70
2022-09-02T20:44:37.653Z,0.60
2022-09-02T20:47:41.245Z,0.50
2022-09-02T20:50:33.168Z,0.50
2022-09-02T20:53:27.762Z,0.52
2022-09-02T20:56:02.084Z,0.75
2022-09-02T20:58:36.677Z,0.90
2022-09-02T21:01:07.504Z,0.80
2022-09-02T21:03:58.333Z,0.45
2022-09-02T21:06:30.478Z,0.60
2022-09-02T21:09:08.815Z,1.02
2022-09-02T21:11:51.903Z,1.13
2022-09-02T21:14:23.806Z,0.68
2022-09-02T21:17:00.879Z,0.60
2022-09-02T21:19:41.548Z,1.00
2022-09-02T21:22:19.822Z,0.80
2022-09-02T21:25:00.831Z,0.80
2022-09-02T21:28:05.071Z,0.60
2022-09-02T21:30:38.675Z,0.47
2022-09-02T21:33:10.146Z,0.57
2022-09-02T21:35:47.429Z,0.75
2022-09-02T21:38:40.912Z,0.90
2022-09-02T21:41:35.410Z,0.80
2022-09-02T21:44:23.081Z,0.60
2022-09-02T21:47:18.656Z,0.65
2022-09-02T21:50:06.289Z,0.63
2022-09-02T21:52:55.786Z,0.85
2022-09-02T21:55:35.016Z,0.55
2022-09-02T21:58:10.831Z,0.55
2022-09-02T22:00:45.675Z,0.70
2022-09-02T22:03:38.466Z,0.90
2022-09-02T22:06:13.620Z,0.82
2022-09-02T22:08:49.115Z,0.82
2022-09-02T22:11:29.624Z,1.42
2022-09-02T22:13:59.683Z,1.13
2022-09-02T22:16:52.669Z,1.02
2022-09-02T22:19:22.041Z,1.00
2022-09-02T22:21:52.303Z,0.80
2022-09-02T22:24:22.303Z,1.05
2022-09-02T22:26:53.009Z,1.00
2022-09-02T22:29:48.049Z,0.65
2022-09-02T22:32:19.048Z,1.13
2022-09-02T22:34:55.854Z,0.70
2022-09-02T22:37:28.220Z,0.88
2022-09-02T22:39:56.239Z,0.60
2022-09-02T22:42:33.098Z,0.65
2022-09-02T22:45:02.274Z,1.10
2022-09-02T22:47:32.902Z,0.90
2022-09-02T22:50:02.258Z,0.70
2022-09-02T22:52:34.501Z,0.80
2022-09-02T22:55:01.105Z,0.88
2022-09-02T22:58:00.958Z,0.93
2022-09-02T23:00:32.160Z,1.15
2022-09-02T23:03:14.261Z,0.70
2022-09-02T23:05:58.044Z,1.05
2022-09-02T23:08:24.736Z,0.68
2022-09-02T23:11:07.656Z,0.80
2022-09-02T23:13:52.726Z,1.30
2022-09-02T23:16:56.644Z,0.90
2022-09-02T23:19:32.244Z,0.70
2022-09-02T23:22:07.516Z,0.60
2022-09-02T23:24:46.713Z,0.50
2022-09-02T23:27:28.260Z,0.50
2022-09-02T23:29:54.940Z,0.68
2022-09-02T23:32:48.598Z,0.90
2022-09-02T23:35:22.928Z,0.70
2022-09-02T23:38:11.001Z,0.80
2022-09-02T23:40:54.149Z,0.60
2022-09-02T23:43:20.900Z,0.70
2022-09-02T23:45:48.020Z,0.95
2022-09-02T23:48:24.766Z,0.95
2022-09-02T23:51:26.635Z,0.60
2022-09-02T23:54:21.316Z,0.50
2022-09-02T23:57:09.115Z,0.70
2022-09-02T23:59:41.771Z,1.00
